createdAt,value
2022-10-28T00:01:26.386Z,23.45
2022-10-28T00:03:58.183Z,23.48
2022-10-28T00:06:29.833Z,23.51
2022-10-28T00:08:58.918Z,23.55
2022-10-28T00:11:30.666Z,23.58
2022-10-28T00:14:02.409Z,23.62
2022-10-28T00:16:33.582Z,23.65
2022-10-28T00:19:04.175Z,23.69
2022-10-28T00:21:34.985Z,23.73
2022-10-28T00:24:03.612Z,23.76
2022-10-28T00:26:33.967Z,23.80
2022-10-28T00:29:06.637Z,23.85
2022-10-28T00:31:36.750Z,23.91
2022-10-28T00:34:07.528Z,23.98
2022-10-28T00:36:38.505Z,24.03
2022-10-28T00:39:13.916Z,24.10
2022-10-28T00:41:46.029Z,24.18
2022-10-28T00:44:48.441Z,24.27
2022-10-28T00:47:31.642Z,24.34
2022-10-28T00:50:18.266Z,24.41
2022-10-28T00:52:50.840Z,24.44
2022-10-28T00:55:20.581Z,24.50
2022-10-28T00:57:50.005Z,24.54
2022-10-28T01:00:18.793Z,24.59
2022-10-28T01:02:49.949Z,24.63
2022-10-28T01:05:23.095Z,24.67
2022-10-28T01:07:57.320Z,24.71
2022-10-28T01:10:37.285Z,24.77
2022-10-28T01:13:46.947Z,24.80
2022-10-28T01:16:28.053Z,24.84
2022-10-28T01:19:05.191Z,24.89
2022-10-28T01:22:03.670Z,24.94
2022-10-28T01:24:48.828Z,24.98
2022-10-28T01:27:41.338Z,25.03
2022-10-28T01:30:15.951Z,25.07
2022-10-28T01:33:05.772Z,25.11
2022-10-28T01:35:58.863Z,25.16
2022-10-28T01:38:52.804Z,25.20
2022-10-28T01:41:39.192Z,25.23
2022-10-28T01:44:25.684Z,25.27
2022-10-28T01:47:11.709Z,25.34
2022-10-28T01:49:49.062Z,25.39
2022-10-28T01:52:24.168Z,25.45
2022-10-28T01:54:58.659Z,25.49
2022-10-28T01:57:29.356Z,25.52
2022-10-28T01:59:58.669Z,25.55
2022-10-28T02:02:27.529Z,25.59
2022-10-28T02:05:06.939Z,25.66
2022-10-28T02:07:35.363Z,25.71
2022-10-28T02:10:20.839Z,25.77
2022-10-28T02:12:55.645Z,25.86
2022-10-28T02:15:52.887Z,25.96
2022-10-28T02:18:23.949Z,26.04
2022-10-28T02:21:00.031Z,26.09
2022-10-28T02:23:54.422Z,26.15
2022-10-28T02:26:32.901Z,26.22
2022-10-28T02:29:17.485Z,26.28
2022-10-28T02:31:58.571Z,26.32
2022-10-28T02:34:34.885Z,26.39
2022-10-28T02:37:08.275Z,26.44
2022-10-28T02:39:42.967Z,26.48
2022-10-28T02:42:20.734Z,26.54
2022-10-28T02:44:55.895Z,26.57
2022-10-28T02:47:32.218Z,26.63
2022-10-28T02:50:04.840Z,26.67
2022-10-28T02:52:36.010Z,26.74
2022-10-28T02:55:07.189Z,26.82
2022-10-28T02:57:45.705Z,26.90
2022-10-28T03:00:20.292Z,26.96
2022-10-28T03:02:48.668Z,27.06
2022-10-28T03:05:17.201Z,27.14
2022-10-28T03:07:45.516Z,27.21
2022-10-28T03:10:13.843Z,27.26
2022-10-28T03:12:44.380Z,27.31
2022-10-28T03:15:13.205Z,27.35
2022-10-28T03:17:42.031Z,27.39
2022-10-28T03:20:11.005Z,27.44
2022-10-28T03:22:39.348Z,27.50
2022-10-28T03:25:07.883Z,27.55
2022-10-28T03:27:36.186Z,27.58
2022-10-28T03:30:04.603Z,27.61
2022-10-28T03:32:32.914Z,27.67
2022-10-28T03:35:01.266Z,27.70
2022-10-28T03:37:29.624Z,27.75
2022-10-28T03:39:57.965Z,27.79
2022-10-28T03:42:26.361Z,27.85
2022-10-28T03:44:54.683Z,27.94
2022-10-28T03:47:23.037Z,28.01
2022-10-28T03:49:51.351Z,28.07
2022-10-28T03:52:19.696Z,28.12
2022-10-28T03:54:48.031Z,28.16
2022-10-28T03:57:16.415Z,28.21
2022-10-28T03:59:44.791Z,28.24
2022-10-28T04:02:13.727Z,28.28
2022-10-28T04:04:42.516Z,28.35
2022-10-28T04:07:10.829Z,28.43
2022-10-28T04:09:39.163Z,28.48
2022-10-28T04:12:08.349Z,28.53
2022-10-28T04:14:36.683Z,28.57
2022-10-28T04:17:05.034Z,28.61
2022-10-28T04:19:33.330Z,28.64
2022-10-28T04:22:01.855Z,28.69
2022-10-28T04:24:30.158Z,28.74
2022-10-28T04:26:58.554Z,28.78
2022-10-28T04:29:26.865Z,28.83
2022-10-28T04:31:55.172Z,28.88
2022-10-28T04:34:23.494Z,28.94
2022-10-28T04:36:52.008Z,28.98
2022-10-28T04:39:20.354Z,29.01
2022-10-28T04:41:48.907Z,29.04
2022-10-28T04:44:17.242Z,29.08
2022-10-28T04:46:46.044Z,29.13
2022-10-28T04:49:14.422Z,29.18
2022-10-28T04:51:42.846Z,29.21
2022-10-28T04:54:11.450Z,29.23
2022-10-28T04:56:39.782Z,29.28
2022-10-28T04:59:08.203Z,29.34
2022-10-28T05:01:37.213Z,29.38
2022-10-28T05:04:05.798Z,29.42
2022-10-28T05:06:34.105Z,29.47
2022-10-28T05:09:02.421Z,29.50
2022-10-28T05:11:30.793Z,29.52
2022-10-28T05:13:59.384Z,29.56
2022-10-28T05:16:27.672Z,29.56
2022-10-28T05:18:56.126Z,29.57
2022-10-28T05:21:24.454Z,29.60
2022-10-28T05:23:52.876Z,29.62
2022-10-28T05:26:21.359Z,29.64
2022-10-28T05:28:53.050Z,29.68
2022-10-28T05:31:21.432Z,29.71
2022-10-28T05:33:49.718Z,29.75
2022-10-28T05:36:18.044Z,29.79
2022-10-28T05:38:46.493Z,29.82
2022-10-28T05:41:15.017Z,29.89
2022-10-28T05:43:43.355Z,29.91
2022-10-28T05:46:11.848Z,29.94
2022-10-28T05:48:40.162Z,29.97
2022-10-28T05:51:08.939Z,30.01
2022-10-28T05:53:37.352Z,30.05
2022-10-28T05:56:05.855Z,30.06
2022-10-28T05:58:34.235Z,30.10
2022-10-28T06:01:02.562Z,30.12
2022-10-28T06:03:31.415Z,30.13
2022-10-28T06:06:00.443Z,30.18
2022-10-28T06:08:29.173Z,30.16
2022-10-28T06:10:56.223Z,30.17
2022-10-28T06:13:24.980Z,30.20
2022-10-28T06:15:54.928Z,30.20
2022-10-28T06:18:24.262Z,30.20
2022-10-28T06:20:58.443Z,30.22
2022-10-28T06:23:28.649Z,30.21
2022-10-28T06:25:59.150Z,30.21
2022-10-28T06:28:28.061Z,30.20
2022-10-28T06:31:05.455Z,30.19
2022-10-28T06:33:34.587Z,30.18
2022-10-28T06:36:03.012Z,30.17
2022-10-28T06:38:31.576Z,30.17
2022-10-28T06:41:00.136Z,30.17
2022-10-28T06:43:28.545Z,30.16
2022-10-28T06:46:00.572Z,30.16
2022-10-28T06:48:30.634Z,30.13
2022-10-28T06:50:59.305Z,30.14
2022-10-28T06:53:27.676Z,30.12
2022-10-28T06:55:57.992Z,30.11
2022-10-28T06:58:27.469Z,30.10
2022-10-28T07:00:56.286Z,30.10
2022-10-28T07:03:24.650Z,30.08
2022-10-28T07:05:53.084Z,30.08
2022-10-28T07:08:21.512Z,30.07
2022-10-28T07:10:57.847Z,30.06
2022-10-28T07:13:27.122Z,30.04
2022-10-28T07:16:01.033Z,30.04
2022-10-28T07:18:31.096Z,30.03
2022-10-28T07:21:03.399Z,30.02
2022-10-28T07:23:35.225Z,29.99
2022-10-28T07:26:03.831Z,29.98
2022-10-28T07:28:32.191Z,29.97
2022-10-28T07:31:03.830Z,29.94
2022-10-28T07:33:32.391Z,29.91
2022-10-28T07:36:00.906Z,29.90
2022-10-28T07:38:29.225Z,29.87
2022-10-28T07:40:57.800Z,29.85
2022-10-28T07:43:26.498Z,29.83
2022-10-28T07:45:58.935Z,29.81
2022-10-28T07:48:27.500Z,29.79
2022-10-28T07:50:55.931Z,29.77
2022-10-28T07:53:26.370Z,29.75
2022-10-28T07:56:05.171Z,29.72
2022-10-28T07:58:33.681Z,29.72
2022-10-28T08:01:10.904Z,29.67
2022-10-28T08:03:39.565Z,29.65
2022-10-28T08:06:18.812Z,29.64
2022-10-28T08:08:49.680Z,29.61
2022-10-28T08:11:22.228Z,29.60
2022-10-28T08:13:53.335Z,29.58
2022-10-28T08:16:21.893Z,29.55
2022-10-28T08:18:50.254Z,29.54
2022-10-28T08:21:18.787Z,29.51
2022-10-28T08:23:47.651Z,29.48
2022-10-28T08:26:17.938Z,29.48
2022-10-28T08:28:46.402Z,29.47
2022-10-28T08:31:14.957Z,29.44
2022-10-28T08:33:47.613Z,29.42
2022-10-28T08:36:17.843Z,29.41
2022-10-28T08:38:47.747Z,29.39
2022-10-28T08:41:41.270Z,29.36
2022-10-28T08:44:33.341Z,29.33
2022-10-28T08:47:08.142Z,29.29
2022-10-28T08:49:41.722Z,29.26
2022-10-28T08:52:34.839Z,29.23
2022-10-28T08:55:07.663Z,29.19
2022-10-28T08:57:52.087Z,29.16
2022-10-28T09:00:30.592Z,29.12
2022-10-28T09:03:13.064Z,29.08
2022-10-28T09:05:44.794Z,29.07
2022-10-28T09:08:26.291Z,29.01
2022-10-28T09:11:01.863Z,28.99
2022-10-28T09:13:50.917Z,28.93
2022-10-28T09:16:19.212Z,28.89
2022-10-28T09:19:04.796Z,28.85
2022-10-28T09:21:34.302Z,28.81
2022-10-28T09:24:16.903Z,28.76
2022-10-28T09:27:02.183Z,28.72
2022-10-28T09:29:38.248Z,28.69
2022-10-28T09:32:31.134Z,28.65
2022-10-28T09:35:28.001Z,28.61
2022-10-28T09:38:24.128Z,28.57
2022-10-28T09:41:20.862Z,28.54
2022-10-28T09:44:08.249Z,28.50
2022-10-28T09:46:37.471Z,28.47
2022-10-28T09:49:13.463Z,28.44
2022-10-28T09:52:02.879Z,28.42
2022-10-28T09:54:38.890Z,28.38
2022-10-28T09:57:08.142Z,28.34
2022-10-28T09:59:36.823Z,28.30
2022-10-28T10:02:06.132Z,28.26
2022-10-28T10:04:36.682Z,28.22
2022-10-28T10:07:23.430Z,28.19
2022-10-28T10:09:52.009Z,28.14
2022-10-28T10:12:20.621Z,28.08
2022-10-28T10:14:53.194Z,28.02
2022-10-28T10:17:43.735Z,27.96
2022-10-28T10:20:15.517Z,27.89
2022-10-28T10:22:46.480Z,27.82
2022-10-28T10:25:20.936Z,27.77
2022-10-28T10:28:17.346Z,27.72
2022-10-28T10:31:02.088Z,27.67
2022-10-28T10:33:36.042Z,27.62
2022-10-28T10:36:06.363Z,27.57
2022-10-28T10:38:36.416Z,27.52
2022-10-28T10:41:05.678Z,27.47
2022-10-28T10:43:38.159Z,27.41
2022-10-28T10:46:18.801Z,27.37
2022-10-28T10:48:47.182Z,27.31
2022-10-28T10:51:31.097Z,27.26
2022-10-28T10:54:03.511Z,27.21
2022-10-28T10:56:33.985Z,27.15
2022-10-28T10:59:11.603Z,27.10
2022-10-28T11:01:55.576Z,27.04
2022-10-28T11:04:26.783Z,26.97
2022-10-28T11:06:58.054Z,26.92
2022-10-28T11:09:38.231Z,26.85
2022-10-28T11:12:33.529Z,26.78
2022-10-28T11:15:04.029Z,26.73
2022-10-28T11:17:35.644Z,26.68
2022-10-28T11:20:26.451Z,26.60
2022-10-28T11:23:18.573Z,26.55
2022-10-28T11:26:00.050Z,26.49
2022-10-28T11:28:38.256Z,26.45
2022-10-28T11:31:15.793Z,26.40
2022-10-28T11:34:24.022Z,26.36
2022-10-28T11:37:16.194Z,26.31
2022-10-28T11:40:05.690Z,26.27
2022-10-28T11:42:43.008Z,26.23
2022-10-28T11:45:34.020Z,26.21
2022-10-28T11:48:28.962Z,26.15
2022-10-28T11:51:15.175Z,26.10
2022-10-28T11:53:58.064Z,26.06
2022-10-28T11:56:45.256Z,26.02
2022-10-28T11:59:31.580Z,25.98
2022-10-28T12:02:05.760Z,25.94
2022-10-28T12:04:54.606Z,25.90
2022-10-28T12:07:47.897Z,25.86
2022-10-28T12:10:21.294Z,25.83
2022-10-28T12:12:55.617Z,25.78
2022-10-28T12:15:42.725Z,25.74
2022-10-28T12:18:29.655Z,25.68
2022-10-28T12:21:24.399Z,25.64
2022-10-28T12:23:55.122Z,25.61
2022-10-28T12:26:40.795Z,25.56
2022-10-28T12:29:31.189Z,25.53
2022-10-28T12:32:15.236Z,25.51
2022-10-28T12:34:50.195Z,25.47
2022-10-28T12:37:37.732Z,25.45
2022-10-28T12:40:25.604Z,25.42
2022-10-28T12:42:56.815Z,25.40
2022-10-28T12:45:26.359Z,25.38
2022-10-28T12:48:02.621Z,25.35
2022-10-28T12:50:35.982Z,25.33
2022-10-28T12:53:19.930Z,25.31
2022-10-28T12:55:59.024Z,25.29
2022-10-28T12:59:08.522Z,25.26
2022-10-28T13:01:38.102Z,25.23
2022-10-28T13:04:07.167Z,25.21
2022-10-28T13:07:09.791Z,25.18
2022-10-28T13:10:05.384Z,25.15
2022-10-28T13:12:48.609Z,25.12
2022-10-28T13:15:28.807Z,25.08
2022-10-28T13:18:04.719Z,25.06
2022-10-28T13:21:08.214Z,25.03
2022-10-28T13:24:03.616Z,25.02
2022-10-28T13:26:37.147Z,25.01
2022-10-28T13:29:20.521Z,25.00
2022-10-28T13:31:50.124Z,24.96
2022-10-28T13:34:21.949Z,24.95
2022-10-28T13:37:00.289Z,24.95
2022-10-28T13:39:34.476Z,24.92
2022-10-28T13:42:15.804Z,24.91
2022-10-28T13:44:53.434Z,24.89
2022-10-28T13:47:35.801Z,24.88
2022-10-28T13:50:12.880Z,24.87
2022-10-28T13:52:45.938Z,24.85
2022-10-28T13:55:43.128Z,24.82
2022-10-28T13:58:26.645Z,24.81
2022-10-28T14:00:55.958Z,24.78
2022-10-28T14:03:29.298Z,24.77
2022-10-28T14:06:00.792Z,24.75
2022-10-28T14:08:36.513Z,24.73
2022-10-28T14:11:13.014Z,24.72
2022-10-28T14:13:49.983Z,24.70
2022-10-28T14:16:34.417Z,24.70
2022-10-28T14:19:20.752Z,24.67
2022-10-28T14:22:00.613Z,24.64
2022-10-28T14:24:42.140Z,24.62
2022-10-28T14:27:10.916Z,24.61
2022-10-28T14:29:57.231Z,24.60
2022-10-28T14:32:34.701Z,24.58
2022-10-28T14:35:14.885Z,24.56
2022-10-28T14:38:16.651Z,24.54
2022-10-28T14:40:47.734Z,24.51
2022-10-28T14:44:11.261Z,24.50
2022-10-28T14:46:42.113Z,24.48
2022-10-28T14:49:27.556Z,24.47
2022-10-28T14:51:58.241Z,24.47
2022-10-28T14:54:50.242Z,24.46
2022-10-28T14:57:23.713Z,24.44
2022-10-28T14:59:53.318Z,24.44
2022-10-28T15:02:25.983Z,24.41
2022-10-28T15:05:16.121Z,24.40
2022-10-28T15:07:45.493Z,24.38
2022-10-28T15:10:20.005Z,24.38
2022-10-28T15:12:50.221Z,24.37
2022-10-28T15:15:27.630Z,24.37
2022-10-28T15:17:56.450Z,24.38
2022-10-28T15:20:27.973Z,24.38
2022-10-28T15:23:13.089Z,24.37
2022-10-28T15:25:41.433Z,24.36
2022-10-28T15:28:14.545Z,24.34
2022-10-28T15:30:46.709Z,24.33
2022-10-28T15:33:30.915Z,24.31
2022-10-28T15:36:25.898Z,24.31
2022-10-28T15:39:18.599Z,24.29
2022-10-28T15:41:53.218Z,24.27
2022-10-28T15:44:40.772Z,24.23
2022-10-28T15:47:34.301Z,24.21
2022-10-28T15:50:17.968Z,24.19
2022-10-28T15:52:54.304Z,24.16
2022-10-28T15:55:47.671Z,24.15
2022-10-28T15:58:19.508Z,24.13
2022-10-28T16:00:59.389Z,24.12
2022-10-28T16:03:42.757Z,24.12
2022-10-28T16:06:25.301Z,24.10
2022-10-28T16:09:29.374Z,24.10
2022-10-28T16:12:02.580Z,24.11
2022-10-28T16:14:41.158Z,24.09
2022-10-28T16:17:24.715Z,24.09
2022-10-28T16:20:03.274Z,24.07
2022-10-28T16:22:36.546Z,24.04
2022-10-28T16:28:03.978Z,24.03
2022-10-28T16:30:32.364Z,24.02
2022-10-28T16:33:00.798Z,24.01
2022-10-28T16:35:30.187Z,24.00
2022-10-28T16:37:58.563Z,23.98
2022-10-28T16:43:18.328Z,23.94
2022-10-28T16:45:47.382Z,23.92
2022-10-28T16:48:17.267Z,23.89
2022-10-28T16:50:53.168Z,23.87
2022-10-28T16:53:21.691Z,23.86
2022-10-28T16:55:50.358Z,23.85
2022-10-28T16:58:21.884Z,23.83
2022-10-28T17:00:53.588Z,23.81
2022-10-28T17:03:21.943Z,23.80
2022-10-28T17:05:50.618Z,23.78
2022-10-28T17:08:36.192Z,23.77
2022-10-28T17:11:07.670Z,23.76
2022-10-28T17:13:36.277Z,23.73
2022-10-28T17:16:04.591Z,23.73
2022-10-28T17:18:32.924Z,23.72
2022-10-28T17:21:02.832Z,23.72
2022-10-28T17:23:31.839Z,23.72
2022-10-28T17:26:01.232Z,23.71
2022-10-28T17:28:29.830Z,23.72
2022-10-28T17:31:09.807Z,23.71
2022-10-28T17:33:38.117Z,23.70
2022-10-28T17:36:09.576Z,23.67
2022-10-28T17:38:38.061Z,23.66
2022-10-28T17:41:06.508Z,23.65
2022-10-28T17:43:35.047Z,23.63
2022-10-28T17:46:07.723Z,23.61
2022-10-28T17:48:36.503Z,23.59
2022-10-28T17:51:04.898Z,23.58
2022-10-28T17:53:33.244Z,23.57
2022-10-28T17:56:03.283Z,23.54
2022-10-28T17:58:32.138Z,23.55
2022-10-28T18:01:06.366Z,23.53
2022-10-28T18:03:39.591Z,23.51
2022-10-28T18:06:11.726Z,23.49
2022-10-28T18:08:42.446Z,23.48
2022-10-28T18:11:13.477Z,23.47
2022-10-28T18:13:45.990Z,23.44
2022-10-28T18:16:16.832Z,23.43
2022-10-28T18:18:45.655Z,23.42
2022-10-28T18:21:15.110Z,23.40
2022-10-28T18:23:43.763Z,23.39
2022-10-28T18:26:16.625Z,23.38
2022-10-28T18:28:46.790Z,23.35
2022-10-28T18:31:17.778Z,23.35
2022-10-28T18:33:47.366Z,23.33
2022-10-28T18:36:21.624Z,23.32
2022-10-28T18:38:50.055Z,23.29
2022-10-28T18:41:23.842Z,23.29
2022-10-28T18:43:59.981Z,23.27
2022-10-28T18:46:29.692Z,23.25
2022-10-28T18:48:58.390Z,23.23
2022-10-28T18:51:27.181Z,23.20
2022-10-28T18:53:57.529Z,23.18
2022-10-28T18:56:30.144Z,23.15
2022-10-28T18:58:59.600Z,23.13
2022-10-28T19:01:30.011Z,23.12
2022-10-28T19:04:01.171Z,23.10
2022-10-28T19:06:33.271Z,23.10
2022-10-28T19:09:03.473Z,23.09
2022-10-28T19:11:33.299Z,23.07
2022-10-28T19:14:05.052Z,23.07
2022-10-28T19:16:35.086Z,23.05
2022-10-28T19:19:05.549Z,23.04
2022-10-28T19:21:34.479Z,23.03
2022-10-28T19:24:03.405Z,23.00
2022-10-28T19:26:32.865Z,22.98
2022-10-28T19:29:01.309Z,22.95
2022-10-28T19:31:31.057Z,22.95
2022-10-28T19:33:59.381Z,22.92
2022-10-28T19:36:29.593Z,22.90
2022-10-28T19:38:59.266Z,22.88
2022-10-28T19:41:30.255Z,22.85
2022-10-28T19:44:02.750Z,22.84
2022-10-28T19:46:35.853Z,22.82
2022-10-28T19:49:06.686Z,22.81
2022-10-28T19:51:38.531Z,22.80
2022-10-28T19:54:12.308Z,22.80
2022-10-28T19:56:41.381Z,22.78
2022-10-28T19:59:09.943Z,22.78
2022-10-28T20:01:39.752Z,22.76
2022-10-28T20:04:10.429Z,22.76
2022-10-28T20:06:40.723Z,22.76
2022-10-28T20:09:11.306Z,22.75
2022-10-28T20:11:40.645Z,22.75
2022-10-28T20:14:12.794Z,22.73
2022-10-28T20:16:47.549Z,22.73
2022-10-28T20:19:16.046Z,22.70
2022-10-28T20:21:46.099Z,22.67
2022-10-28T20:24:14.465Z,22.68
2022-10-28T20:26:42.748Z,22.67
2022-10-28T20:29:11.082Z,22.66
2022-10-28T20:31:42.255Z,22.63
2022-10-28T20:34:10.845Z,22.63
2022-10-28T20:36:41.465Z,22.61
2022-10-28T20:39:17.704Z,22.58
2022-10-28T20:41:47.734Z,22.57
2022-10-28T20:44:17.148Z,22.57
2022-10-28T20:46:48.901Z,22.54
2022-10-28T20:49:17.594Z,22.54
2022-10-28T20:51:46.019Z,22.51
2022-10-28T20:54:14.351Z,22.50
2022-10-28T20:56:43.198Z,22.48
2022-10-28T20:59:11.778Z,22.46
2022-10-28T21:01:42.057Z,22.46
2022-10-28T21:04:12.587Z,22.42
2022-10-28T21:06:41.383Z,22.39
2022-10-28T21:09:10.123Z,22.38
2022-10-28T21:11:38.455Z,22.35
2022-10-28T21:14:06.892Z,22.32
2022-10-28T21:16:35.366Z,22.32
2022-10-28T21:19:03.948Z,22.31
2022-10-28T21:21:32.884Z,22.29
2022-10-28T21:24:01.317Z,22.27
2022-10-28T21:26:29.787Z,22.25
2022-10-28T21:28:58.127Z,22.24
2022-10-28T21:31:26.865Z,22.22
2022-10-28T21:33:55.406Z,22.20
2022-10-28T21:36:24.401Z,22.17
2022-10-28T21:38:56.959Z,22.14
2022-10-28T21:41:26.572Z,22.12
2022-10-28T21:43:55.809Z,22.12
2022-10-28T21:46:25.067Z,22.08
2022-10-28T21:48:54.730Z,22.06
2022-10-28T21:51:23.187Z,22.05
2022-10-28T21:53:51.586Z,22.05
2022-10-28T21:56:21.337Z,22.04
2022-10-28T21:58:52.096Z,22.03
2022-10-28T22:01:23.572Z,22.03
2022-10-28T22:03:55.558Z,22.02
2022-10-28T22:06:24.304Z,22.01
2022-10-28T22:08:59.407Z,21.98
2022-10-28T22:11:28.357Z,21.96
2022-10-28T22:13:59.472Z,21.95
2022-10-28T22:16:29.665Z,21.93
2022-10-28T22:19:00.487Z,21.90
2022-10-28T22:21:31.389Z,21.87
2022-10-28T22:24:00.095Z,21.86
2022-10-28T22:26:31.308Z,21.84
2022-10-28T22:28:59.951Z,21.81
2022-10-28T22:31:32.517Z,21.79
2022-10-28T22:34:02.135Z,21.77
2022-10-28T22:36:31.319Z,21.77
2022-10-28T22:38:59.850Z,21.77
2022-10-28T22:41:31.856Z,21.76
2022-10-28T22:44:02.276Z,21.76
2022-10-28T22:46:34.441Z,21.75
2022-10-28T22:49:08.592Z,21.73
2022-10-28T22:51:36.996Z,21.72
2022-10-28T22:54:05.723Z,21.71
2022-10-28T22:56:34.173Z,21.70
2022-10-28T22:59:04.606Z,21.71
2022-10-28T23:01:33.128Z,21.70
2022-10-28T23:04:02.004Z,21.67
2022-10-28T23:06:31.342Z,21.68
2022-10-28T23:08:59.888Z,21.66
2022-10-28T23:11:28.317Z,21.66
2022-10-28T23:13:57.398Z,21.66
2022-10-28T23:16:26.212Z,21.66
2022-10-28T23:18:54.919Z,21.66
2022-10-28T23:21:27.771Z,21.67
2022-10-28T23:24:03.380Z,21.67
2022-10-28T23:26:35.151Z,21.69
2022-10-28T23:29:05.787Z,21.70
2022-10-28T23:31:34.158Z,21.72
2022-10-28T23:34:02.593Z,21.74
2022-10-28T23:36:31.006Z,21.75
2022-10-28T23:38:59.459Z,21.79
2022-10-28T23:41:27.916Z,21.82
2022-10-28T23:43:56.411Z,21.84
2022-10-28T23:46:26.032Z,21.86
2022-10-28T23:48:54.483Z,21.89
2022-10-28T23:51:27.419Z,21.94
2022-10-28T23:53:55.861Z,21.97
2022-10-28T23:56:27.157Z,22.00
2022-10-28T23:58:55.567Z,22.03
